Time;durP1;ratioP1;P1;durP2;ratioP2;P2;SDS_P1;SDS_P2;PMS_P1;PMS_P2;Temp;Humidity;BMP_temperature;BMP_pressure;BME280_temperature;BME280_humidity;BME280_pressure;Samples;Min_cycle;Max_cycle;Signal;HPM_P1;HPM_P2
2023/05/18 00:00:22;;;;;;;2.42;1.40;;;8.20;99.90;;;;;;5006411;28;20688;-72
2023/05/18 00:02:48;;;;;;;1.35;0.77;;;8.30;99.90;;;;;;5024502;28;20121;-73
2023/05/18 00:05:14;;;;;;;2.90;1.00;;;8.30;99.90;;;;;;5022108;28;20527;-73
2023/05/18 00:07:39;;;;;;;3.03;1.00;;;8.30;99.90;;;;;;5022550;28;20237;-73
2023/05/18 00:10:06;;;;;;;1.45;0.80;;;8.30;99.90;;;;;;5022865;28;20056;-74
2023/05/18 00:12:32;;;;;;;3.75;1.10;;;8.30;99.90;;;;;;5022568;28;20100;-72
2023/05/18 00:14:57;;;;;;;3.10;1.73;;;8.30;99.90;;;;;;5023872;28;20077;-74
2023/05/18 00:17:23;;;;;;;3.33;0.70;;;8.30;99.90;;;;;;5023001;28;20053;-74
2023/05/18 00:19:49;;;;;;;4.10;1.33;;;8.30;99.90;;;;;;5023238;28;20056;-73
2023/05/18 00:22:18;;;;;;;1.83;0.80;;;8.30;99.90;;;;;;5022388;28;20399;-73
2023/05/18 00:24:45;;;;;;;1.25;1.20;;;8.30;99.90;;;;;;5022209;28;20034;-72
2023/05/18 00:27:10;;;;;;;1.48;1.38;;;8.30;99.90;;;;;;5023983;28;20534;-73
2023/05/18 00:29:36;;;;;;;1.25;1.15;;;8.40;99.90;;;;;;5023717;28;20046;-73
2023/05/18 00:32:02;;;;;;;4.43;1.13;;;8.40;99.90;;;;;;5023503;28;20132;-73
2023/05/18 00:34:27;;;;;;;1.73;1.50;;;8.40;99.90;;;;;;5021404;28;20276;-74
2023/05/18 00:36:53;;;;;;;1.42;1.30;;;8.40;99.90;;;;;;5024328;28;20041;-74
2023/05/18 00:39:19;;;;;;;2.78;0.90;;;8.50;99.90;;;;;;5023268;28;20044;-74
2023/05/18 00:41:44;;;;;;;1.42;1.02;;;8.50;99.90;;;;;;5021741;28;20136;-73
2023/05/18 00:44:10;;;;;;;1.27;0.60;;;8.40;99.90;;;;;;5022064;28;20345;-73
2023/05/18 00:46:35;;;;;;;1.10;1.00;;;8.50;99.90;;;;;;5021749;28;20042;-73
2023/05/18 00:49:01;;;;;;;2.33;0.80;;;8.50;99.90;;;;;;5021304;28;20355;-73
2023/05/18 00:51:28;;;;;;;4.63;2.03;;;8.40;99.90;;;;;;5023383;28;20451;-74
2023/05/18 00:53:55;;;;;;;0.98;0.90;;;8.40;99.90;;;;;;5022692;28;20060;-72
2023/05/18 00:56:25;;;;;;;1.58;1.20;;;8.40;99.90;;;;;;5005894;28;20060;-73
2023/05/18 00:58:54;;;;;;;3.08;1.13;;;8.40;99.90;;;;;;5021766;28;20037;-74
2023/05/18 01:01:28;;;;;;;2.28;1.10;;;8.40;99.90;;;;;;5021503;28;20049;-72
2023/05/18 01:03:55;;;;;;;2.08;1.35;;;8.40;99.90;;;;;;5021460;28;20050;-73
2023/05/18 01:06:24;;;;;;;0.85;0.80;;;8.40;99.90;;;;;;5021854;28;20049;-72
2023/05/18 01:08:51;;;;;;;0.90;0.85;;;8.50;99.90;;;;;;5022301;28;20064;-72
2023/05/18 01:11:51;;;;;;;1.90;1.20;;;8.50;99.90;;;;;;5021711;28;20084;-73
2023/05/18 01:14:22;;;;;;;0.80;0.73;;;8.50;99.90;;;;;;5023258;28;20048;-73
2023/05/18 01:17:01;;;;;;;3.75;1.23;;;8.50;99.90;;;;;;5022684;28;20052;-73
2023/05/18 01:19:43;;;;;;;3.28;1.38;;;8.50;99.90;;;;;;5020176;28;20041;-73
2023/05/18 01:22:33;;;;;;;3.25;1.17;;;8.50;99.90;;;;;;5021790;28;20415;-74
2023/05/18 01:25:09;;;;;;;3.63;2.35;;;8.50;99.90;;;;;;5022665;28;20136;-73
2023/05/18 01:27:36;;;;;;;1.27;1.05;;;8.50;99.90;;;;;;5022118;28;20403;-73
2023/05/18 01:30:03;;;;;;;1.73;1.25;;;8.50;99.90;;;;;;5022395;28;20056;-74
2023/05/18 01:32:29;;;;;;;1.55;1.02;;;8.50;99.90;;;;;;5022601;28;20037;-74
2023/05/18 01:34:55;;;;;;;1.40;1.05;;;8.50;99.90;;;;;;5022265;28;20398;-73
2023/05/18 01:37:20;;;;;;;2.28;1.48;;;8.50;99.90;;;;;;5021364;28;20427;-72
2023/05/18 01:39:46;;;;;;;1.95;1.10;;;8.50;99.90;;;;;;5022472;28;20079;-73
2023/05/18 01:42:20;;;;;;;2.65;1.70;;;8.50;99.90;;;;;;5021274;28;20048;-73
2023/05/18 01:44:53;;;;;;;3.95;0.90;;;8.40;99.90;;;;;;5021104;28;20080;-74
2023/05/18 01:47:19;;;;;;;2.17;0.73;;;8.40;99.90;;;;;;5021437;28;20037;-73
2023/05/18 01:49:58;;;;;;;3.38;1.60;;;8.50;99.90;;;;;;5021594;28;20080;-72
2023/05/18 01:52:31;;;;;;;1.00;1.00;;;8.40;99.90;;;;;;5022493;28;20514;-73
2023/05/18 01:55:02;;;;;;;3.03;1.17;;;8.40;99.90;;;;;;5020655;28;20046;-73
2023/05/18 01:57:30;;;;;;;1.52;1.42;;;8.40;99.90;;;;;;5021387;28;20033;-73
2023/05/18 01:59:58;;;;;;;3.40;0.82;;;8.40;99.90;;;;;;5021083;28;20539;-75
2023/05/18 02:02:25;;;;;;;0.90;0.90;;;8.40;99.90;;;;;;5021339;28;20067;-73
2023/05/18 02:04:51;;;;;;;9.93;1.65;;;8.50;99.90;;;;;;5021770;28;20045;-73
2023/05/18 02:07:16;;;;;;;2.42;0.80;;;8.40;99.90;;;;;;5021965;28;20041;-73
2023/05/18 02:09:43;;;;;;;0.82;0.77;;;8.50;99.90;;;;;;5020454;28;20034;-74
2023/05/18 02:12:09;;;;;;;3.58;1.02;;;8.50;99.90;;;;;;5020216;28;20048;-72
2023/05/18 02:14:35;;;;;;;2.60;0.90;;;8.50;99.90;;;;;;5022068;28;20046;-72
2023/05/18 02:17:00;;;;;;;2.03;1.77;;;8.50;99.90;;;;;;5021909;28;20049;-72
2023/05/18 02:19:26;;;;;;;3.42;1.23;;;8.50;99.90;;;;;;5019580;28;20053;-74
2023/05/18 02:21:52;;;;;;;7.43;2.05;;;8.50;99.90;;;;;;5022106;28;20037;-73
2023/05/18 02:24:17;;;;;;;0.80;0.80;;;8.50;99.90;;;;;;5020587;28;20488;-72
2023/05/18 02:26:43;;;;;;;0.98;0.77;;;8.50;99.90;;;;;;5020598;28;20052;-73
2023/05/18 02:29:10;;;;;;;1.70;0.95;;;8.50;99.90;;;;;;5022018;28;20451;-73
2023/05/18 02:31:37;;;;;;;2.78;0.85;;;8.50;99.90;;;;;;5021536;28;20046;-73
2023/05/18 02:34:03;;;;;;;1.70;0.95;;;8.50;99.90;;;;;;5020589;28;20041;-72
2023/05/18 02:36:41;;;;;;;2.75;1.25;;;8.50;99.90;;;;;;5021590;28;20455;-73
2023/05/18 02:39:08;;;;;;;5.57;1.10;;;8.50;99.90;;;;;;5022007;28;20045;-72
2023/05/18 02:41:37;;;;;;;1.13;1.02;;;8.40;99.90;;;;;;5021510;28;20052;-73
2023/05/18 02:44:03;;;;;;;1.35;1.35;;;8.40;99.90;;;;;;5020415;28;20037;-74
2023/05/18 02:46:29;;;;;;;2.40;0.73;;;8.50;99.90;;;;;;5021946;28;20050;-73
2023/05/18 02:48:55;;;;;;;1.73;1.48;;;8.40;99.90;;;;;;5020768;28;20065;-73
2023/05/18 02:51:21;;;;;;;1.88;1.42;;;8.40;99.90;;;;;;5020500;28;20048;-74
2023/05/18 02:53:47;;;;;;;2.75;1.63;;;8.40;99.90;;;;;;5021754;28;20257;-73
2023/05/18 02:56:13;;;;;;;2.80;1.00;;;8.40;99.90;;;;;;5020519;28;20049;-72
2023/05/18 02:58:39;;;;;;;0.93;0.68;;;8.40;99.90;;;;;;5019419;28;20444;-72
2023/05/18 03:01:08;;;;;;;1.83;1.05;;;8.40;99.90;;;;;;5020271;28;20046;-73
2023/05/18 03:03:33;;;;;;;1.92;1.48;;;8.40;99.90;;;;;;5021006;28;20045;-74
2023/05/18 03:06:01;;;;;;;1.15;1.05;;;8.40;99.90;;;;;;5003681;28;20056;-73
2023/05/18 03:08:27;;;;;;;1.02;0.95;;;8.40;99.90;;;;;;5021424;28;20049;-73
2023/05/18 03:10:53;;;;;;;2.33;1.80;;;8.40;99.90;;;;;;5014731;28;20046;-74
2023/05/18 03:13:19;;;;;;;4.28;1.67;;;8.40;99.90;;;;;;5001829;28;20428;-74
2023/05/18 03:15:44;;;;;;;2.10;0.90;;;8.40;99.90;;;;;;5001371;28;20054;-73
2023/05/18 03:18:11;;;;;;;1.60;0.90;;;8.40;99.90;;;;;;5001154;28;20152;-73
2023/05/18 03:20:37;;;;;;;2.97;1.25;;;8.40;99.90;;;;;;5004914;28;20470;-73
2023/05/18 03:23:03;;;;;;;4.65;2.45;;;8.40;99.90;;;;;;5021481;28;20041;-73
2023/05/18 03:25:29;;;;;;;3.33;1.90;;;8.40;99.90;;;;;;5022809;28;20037;-72
2023/05/18 03:27:55;;;;;;;1.65;0.88;;;8.40;99.90;;;;;;5025388;28;20045;-74
2023/05/18 03:30:21;;;;;;;2.17;1.40;;;8.40;99.90;;;;;;5025282;28;20439;-73
2023/05/18 03:32:47;;;;;;;4.40;1.73;;;8.40;99.90;;;;;;5024882;28;20033;-72
2023/05/18 03:35:13;;;;;;;2.83;1.60;;;8.40;99.90;;;;;;5023668;28;20041;-73
2023/05/18 03:37:39;;;;;;;3.70;1.38;;;8.40;99.90;;;;;;5024786;28;20449;-73
2023/05/18 03:40:09;;;;;;;2.90;1.73;;;8.40;99.90;;;;;;5025291;28;20080;-72
2023/05/18 03:42:35;;;;;;;3.13;1.58;;;8.30;99.90;;;;;;5006744;28;20179;-73
2023/05/18 03:45:01;;;;;;;4.78;1.30;;;8.40;99.90;;;;;;5024491;28;20624;-72
2023/05/18 03:47:28;;;;;;;1.02;0.90;;;8.40;99.90;;;;;;5024166;28;20037;-74
2023/05/18 03:49:54;;;;;;;5.82;1.58;;;8.40;99.90;;;;;;5024320;28;20120;-72
2023/05/18 03:52:21;;;;;;;3.83;1.80;;;8.40;99.90;;;;;;5024449;28;20452;-73
2023/05/18 03:54:48;;;;;;;1.42;1.13;;;8.40;99.90;;;;;;5023755;28;20049;-72
2023/05/18 03:57:17;;;;;;;2.53;1.60;;;8.40;99.90;;;;;;5024422;28;20048;-74
2023/05/18 03:59:43;;;;;;;2.53;1.63;;;8.50;99.90;;;;;;5022912;28;20107;-73
2023/05/18 04:02:10;;;;;;;2.22;1.13;;;8.50;99.90;;;;;;5024363;28;20512;-72
2023/05/18 04:04:40;;;;;;;2.15;1.40;;;8.40;99.90;;;;;;5023643;28;20053;-72
2023/05/18 04:07:07;;;;;;;1.15;1.00;;;8.40;99.90;;;;;;5022860;28;20053;-73
2023/05/18 04:09:32;;;;;;;2.42;1.65;;;8.40;99.90;;;;;;5023532;28;20125;-73
2023/05/18 04:11:58;;;;;;;3.17;1.92;;;8.50;99.90;;;;;;5022627;28;20121;-73
2023/05/18 04:14:26;;;;;;;1.90;1.08;;;8.50;99.90;;;;;;5023295;28;20395;-73
2023/05/18 04:16:52;;;;;;;2.30;1.20;;;8.50;99.90;;;;;;5022545;28;20045;-73
2023/05/18 04:19:18;;;;;;;3.05;1.15;;;8.50;99.90;;;;;;5023066;28;20052;-73
2023/05/18 04:21:46;;;;;;;2.22;1.70;;;8.50;99.90;;;;;;5023550;28;20045;-72
2023/05/18 04:24:13;;;;;;;1.60;1.50;;;8.50;99.90;;;;;;5022491;28;20480;-72
2023/05/18 04:26:41;;;;;;;5.45;1.63;;;8.50;99.90;;;;;;5023430;28;20496;-73
2023/05/18 04:29:09;;;;;;;1.60;1.08;;;8.50;99.90;;;;;;5023922;28;20103;-73
2023/05/18 04:31:36;;;;;;;6.18;2.65;;;8.50;99.90;;;;;;5021869;28;20119;-74
2023/05/18 04:34:02;;;;;;;3.33;1.58;;;8.50;99.90;;;;;;5023468;28;20041;-73
2023/05/18 04:36:29;;;;;;;2.42;1.98;;;8.50;99.90;;;;;;5022217;28;20041;-73
2023/05/18 04:38:58;;;;;;;2.15;1.17;;;8.50;99.90;;;;;;5023975;28;20044;-73
2023/05/18 04:41:27;;;;;;;3.92;1.50;;;8.60;99.90;;;;;;5023534;28;20096;-73
2023/05/18 04:43:52;;;;;;;1.85;1.38;;;8.50;99.90;;;;;;5023604;28;20515;-74
2023/05/18 04:46:21;;;;;;;2.75;1.30;;;8.50;99.90;;;;;;5023645;28;20041;-72
2023/05/18 04:48:48;;;;;;;2.35;1.65;;;8.60;99.90;;;;;;5020891;28;20133;-72
2023/05/18 04:51:20;;;;;;;1.42;1.10;;;8.60;99.90;;;;;;5023011;28;20046;-72
2023/05/18 04:53:48;;;;;;;3.50;2.03;;;8.60;99.90;;;;;;5022594;28;20053;-74
2023/05/18 04:56:17;;;;;;;2.75;1.42;;;8.60;99.90;;;;;;5023173;28;20045;-73
2023/05/18 04:58:44;;;;;;;2.00;1.45;;;8.60;99.90;;;;;;5021686;28;20522;-73
2023/05/18 05:01:13;;;;;;;5.25;2.00;;;8.70;99.90;;;;;;5021677;28;20049;-75
2023/05/18 05:03:39;;;;;;;4.75;1.90;;;8.70;99.90;;;;;;5022249;28;20041;-73
2023/05/18 05:06:05;;;;;;;2.67;1.88;;;8.70;99.90;;;;;;5021719;28;20096;-72
2023/05/18 05:08:31;;;;;;;1.80;1.50;;;8.70;99.90;;;;;;5022438;28;20642;-73
2023/05/18 05:10:56;;;;;;;2.70;1.60;;;8.70;99.90;;;;;;5021730;28;20061;-74
2023/05/18 05:13:22;;;;;;;2.60;1.45;;;8.70;99.90;;;;;;5023581;28;20042;-73
2023/05/18 05:15:47;;;;;;;5.05;1.40;;;8.80;99.90;;;;;;5021407;28;20116;-73
2023/05/18 05:18:13;;;;;;;2.65;1.35;;;8.90;99.90;;;;;;5020642;28;20125;-74
2023/05/18 05:20:38;;;;;;;1.73;1.48;;;8.90;99.90;;;;;;5021469;28;20116;-73
2023/05/18 05:23:04;;;;;;;4.35;1.73;;;9.00;99.90;;;;;;5020966;28;20507;-72
2023/05/18 05:25:30;;;;;;;2.80;1.35;;;9.00;99.90;;;;;;5022073;28;20446;-74
2023/05/18 05:27:55;;;;;;;4.47;1.77;;;9.10;99.90;;;;;;5023221;28;20050;-76
2023/05/18 05:30:21;;;;;;;2.80;1.23;;;9.10;99.90;;;;;;5021830;28;20033;-72
2023/05/18 05:32:47;;;;;;;1.42;1.33;;;9.10;99.90;;;;;;5004388;28;20053;-74
2023/05/18 05:35:12;;;;;;;2.38;1.15;;;9.20;99.90;;;;;;5020948;28;20076;-73
2023/05/18 05:37:38;;;;;;;5.97;1.67;;;9.20;99.90;;;;;;5021920;28;20545;-72
2023/05/18 05:40:08;;;;;;;3.30;1.58;;;9.30;99.90;;;;;;5022325;28;20599;-72
2023/05/18 05:42:34;;;;;;;3.42;1.15;;;9.30;99.90;;;;;;5020512;28;20057;-73
2023/05/18 05:44:59;;;;;;;4.30;0.95;;;9.30;99.90;;;;;;5021566;28;20090;-74
2023/05/18 05:47:25;;;;;;;5.70;1.67;;;9.40;99.90;;;;;;5020847;28;20475;-72
2023/05/18 05:49:50;;;;;;;3.63;1.35;;;9.40;99.90;;;;;;5020021;28;20045;-73
2023/05/18 05:52:16;;;;;;;4.53;1.40;;;9.40;99.90;;;;;;5021123;28;20346;-74
2023/05/18 05:54:41;;;;;;;3.40;1.20;;;9.40;99.90;;;;;;5020923;28;20050;-73
2023/05/18 05:57:07;;;;;;;1.85;1.48;;;9.50;99.90;;;;;;5022049;28;20120;-72
2023/05/18 05:59:32;;;;;;;1.92;0.82;;;9.50;99.90;;;;;;5021975;28;20513;-73
2023/05/18 06:01:58;;;;;;;2.30;1.30;;;9.50;99.90;;;;;;5022573;28;20384;-73
2023/05/18 06:04:24;;;;;;;3.53;1.35;;;9.60;99.90;;;;;;5020294;28;20126;-73
2023/05/18 06:06:49;;;;;;;3.55;1.30;;;9.60;99.90;;;;;;5021562;28;20037;-73
2023/05/18 06:09:15;;;;;;;3.08;0.90;;;9.70;99.90;;;;;;5022196;28;20403;-73
2023/05/18 06:11:41;;;;;;;1.90;1.25;;;9.60;99.90;;;;;;5006524;28;20172;-73
2023/05/18 06:14:06;;;;;;;1.63;0.85;;;9.70;99.90;;;;;;5000815;28;20120;-73
2023/05/18 06:16:32;;;;;;;2.53;1.38;;;9.70;99.90;;;;;;5000949;28;20100;-73
2023/05/18 06:18:57;;;;;;;1.52;1.40;;;9.80;99.90;;;;;;5016806;28;20052;-73
2023/05/18 06:21:23;;;;;;;1.15;0.90;;;9.80;99.90;;;;;;5020957;28;20042;-73
2023/05/18 06:23:49;;;;;;;2.53;1.40;;;9.80;99.90;;;;;;5020345;28;20175;-73
2023/05/18 06:26:15;;;;;;;2.63;1.13;;;9.80;99.90;;;;;;5021834;28;20412;-72
2023/05/18 06:28:41;;;;;;;3.05;1.55;;;9.90;99.90;;;;;;5021530;28;20242;-72
2023/05/18 06:31:07;;;;;;;1.58;1.08;;;9.90;99.90;;;;;;5021757;28;20036;-74
2023/05/18 06:33:33;;;;;;;2.92;0.85;;;9.90;99.90;;;;;;5019955;28;20496;-73
2023/05/18 06:35:59;;;;;;;2.88;1.60;;;9.90;99.90;;;;;;5022048;28;20050;-72
2023/05/18 06:38:24;;;;;;;1.52;1.15;;;10.00;99.90;;;;;;5021885;28;20411;-73
2023/05/18 06:40:50;;;;;;;2.22;1.58;;;10.00;99.90;;;;;;5021899;28;20496;-72
2023/05/18 06:43:15;;;;;;;5.97;1.13;;;9.90;99.90;;;;;;5020452;28;20049;-72
2023/05/18 06:45:41;;;;;;;1.20;1.10;;;10.00;99.90;;;;;;5019834;28;20454;-73
2023/05/18 06:48:07;;;;;;;3.13;1.75;;;10.00;99.90;;;;;;5019907;28;20069;-73
2023/05/18 06:50:32;;;;;;;1.92;0.80;;;10.10;99.90;;;;;;5021453;28;20037;-74
2023/05/18 06:52:58;;;;;;;0.77;0.70;;;10.10;99.90;;;;;;5020768;28;20429;-72
2023/05/18 06:55:23;;;;;;;1.13;0.85;;;10.10;99.90;;;;;;5020291;28;20440;-73
2023/05/18 06:57:50;;;;;;;3.70;0.90;;;10.10;99.90;;;;;;5021362;28;20059;-74
2023/05/18 07:00:16;;;;;;;3.38;0.90;;;10.10;99.90;;;;;;5022961;28;20574;-73
2023/05/18 07:02:43;;;;;;;1.95;0.75;;;10.20;99.90;;;;;;4996457;28;20045;-72
2023/05/18 07:05:08;;;;;;;1.38;0.82;;;10.20;99.90;;;;;;5026047;28;20052;-72
2023/05/18 07:07:35;;;;;;;2.22;0.70;;;10.20;99.90;;;;;;5025583;28;20030;-73
2023/05/18 07:10:02;;;;;;;10.65;1.65;;;10.30;99.90;;;;;;5024494;28;20083;-73
2023/05/18 07:12:28;;;;;;;0.70;0.70;;;10.40;99.90;;;;;;5025370;28;20115;-73
2023/05/18 07:14:53;;;;;;;2.75;1.20;;;10.30;99.90;;;;;;5020699;28;20049;-74
2023/05/18 07:17:19;;;;;;;0.63;0.63;;;10.40;99.90;;;;;;5019089;28;20061;-72
2023/05/18 07:19:44;;;;;;;0.90;0.85;;;10.40;99.90;;;;;;5003575;28;20130;-73
2023/05/18 07:22:10;;;;;;;1.80;1.08;;;10.50;99.90;;;;;;5022005;28;20045;-73
2023/05/18 07:24:36;;;;;;;3.03;1.10;;;10.50;99.90;;;;;;5025986;28;20460;-73
2023/05/18 07:27:01;;;;;;;0.90;0.73;;;10.60;99.90;;;;;;5016954;28;20037;-74
2023/05/18 07:29:28;;;;;;;2.83;0.90;;;10.60;99.90;;;;;;5022707;28;20037;-75
2023/05/18 07:31:54;;;;;;;4.32;1.25;;;10.60;99.90;;;;;;5020680;28;20132;-75
2023/05/18 07:34:19;;;;;;;3.05;0.90;;;10.70;99.90;;;;;;5021544;28;21007;-75
2023/05/18 07:36:45;;;;;;;5.50;1.25;;;10.70;99.90;;;;;;5023851;28;20064;-75
2023/05/18 07:39:17;;;;;;;1.73;0.80;;;10.70;99.90;;;;;;5023250;28;20046;-74
2023/05/18 07:41:44;;;;;;;0.82;0.70;;;10.80;99.90;;;;;;5020762;28;20045;-74
2023/05/18 07:44:09;;;;;;;3.33;0.82;;;10.80;99.90;;;;;;5021565;28;20060;-74
2023/05/18 07:46:35;;;;;;;1.88;0.75;;;10.80;99.90;;;;;;5004724;28;20041;-74
2023/05/18 07:49:00;;;;;;;4.13;0.70;;;10.90;99.90;;;;;;5023486;28;20084;-75
2023/05/18 07:51:26;;;;;;;3.33;1.23;;;10.90;99.90;;;;;;5024632;28;20531;-75
2023/05/18 07:53:52;;;;;;;0.63;0.50;;;11.00;99.90;;;;;;5012251;28;20048;-74
2023/05/18 07:56:17;;;;;;;1.45;0.70;;;11.00;99.90;;;;;;5022366;28;20084;-74
2023/05/18 07:58:43;;;;;;;2.38;0.63;;;11.10;99.90;;;;;;5024336;28;20079;-75
2023/05/18 08:01:09;;;;;;;2.60;0.77;;;11.10;99.90;;;;;;5018470;28;20081;-75
2023/05/18 08:03:34;;;;;;;1.45;0.98;;;11.20;99.90;;;;;;5021682;28;20075;-75
2023/05/18 08:06:00;;;;;;;0.77;0.77;;;11.20;99.90;;;;;;5023303;28;20443;-74
2023/05/18 08:08:26;;;;;;;2.97;0.90;;;11.20;99.90;;;;;;5023761;28;20049;-74
2023/05/18 08:10:52;;;;;;;1.08;0.70;;;11.30;99.90;;;;;;5021934;28;20041;-75
2023/05/18 08:13:17;;;;;;;3.45;0.70;;;11.30;99.90;;;;;;5023546;28;20049;-74
2023/05/18 08:15:43;;;;;;;0.77;0.60;;;11.40;99.90;;;;;;5022712;28;20674;-75
2023/05/18 08:18:09;;;;;;;0.85;0.70;;;11.40;99.90;;;;;;5024410;28;20060;-74
2023/05/18 08:20:34;;;;;;;7.47;1.65;;;11.40;99.90;;;;;;5023588;28;20057;-75
2023/05/18 08:23:00;;;;;;;3.70;1.52;;;11.50;99.90;;;;;;5023193;28;20056;-74
2023/05/18 08:25:26;;;;;;;3.13;1.35;;;11.50;99.90;;;;;;5022395;28;20119;-74
2023/05/18 08:27:52;;;;;;;1.85;1.35;;;11.60;99.90;;;;;;5007783;28;20076;-74
2023/05/18 08:30:20;;;;;;;1.92;0.70;;;11.60;99.90;;;;;;5022614;28;20124;-74
2023/05/18 08:32:46;;;;;;;1.08;0.98;;;11.60;99.90;;;;;;5011893;28;20046;-74
2023/05/18 08:35:12;;;;;;;3.33;0.77;;;11.70;99.90;;;;;;5022932;28;20030;-74
2023/05/18 08:37:38;;;;;;;2.33;1.15;;;11.70;99.90;;;;;;5021884;28;20124;-75
2023/05/18 08:40:06;;;;;;;2.88;1.10;;;11.70;99.90;;;;;;5019477;28;20034;-74
2023/05/18 08:42:39;;;;;;;2.42;1.27;;;11.70;99.90;;;;;;5005504;28;20054;-75
2023/05/18 08:45:11;;;;;;;4.72;1.38;;;11.70;99.90;;;;;;5017255;28;20528;-75
2023/05/18 08:47:37;;;;;;;8.95;1.92;;;11.80;99.90;;;;;;5015719;28;20057;-74
2023/05/18 08:50:04;;;;;;;1.23;0.82;;;11.80;99.90;;;;;;5023495;28;20496;-73
2023/05/18 08:52:35;;;;;;;4.05;0.90;;;11.90;99.90;;;;;;5020642;28;20069;-72
2023/05/18 08:55:05;;;;;;;4.10;1.08;;;11.90;99.90;;;;;;5024682;28;20045;-73
2023/05/18 08:57:34;;;;;;;1.15;0.88;;;11.90;99.90;;;;;;5022819;28;20056;-74
2023/05/18 09:00:01;;;;;;;3.78;1.30;;;11.90;99.90;;;;;;5024564;28;20061;-73
2023/05/18 09:02:28;;;;;;;1.85;1.10;;;12.00;99.90;;;;;;5020916;28;20045;-72
2023/05/18 09:04:55;;;;;;;6.13;1.42;;;12.00;99.90;;;;;;5022069;28;20487;-73
2023/05/18 09:07:22;;;;;;;2.33;1.00;;;12.00;99.90;;;;;;5024485;28;20033;-73
2023/05/18 09:09:48;;;;;;;4.72;1.17;;;12.10;99.90;;;;;;5021936;28;20042;-73
2023/05/18 09:12:15;;;;;;;2.13;0.88;;;12.10;99.90;;;;;;5021032;28;20047;-73
2023/05/18 09:14:42;;;;;;;1.77;0.80;;;12.20;99.90;;;;;;5021803;28;20160;-73
2023/05/18 09:17:08;;;;;;;1.10;0.93;;;12.20;99.90;;;;;;5011350;28;20053;-73
2023/05/18 09:19:34;;;;;;;3.90;2.13;;;12.30;99.90;;;;;;5019621;28;20560;-72
2023/05/18 09:22:00;;;;;;;2.83;0.98;;;12.30;99.90;;;;;;5011318;28;20055;-73
2023/05/18 09:24:26;;;;;;;3.08;1.00;;;12.40;99.90;;;;;;5009458;28;20049;-74
2023/05/18 09:26:52;;;;;;;7.90;1.58;;;12.40;99.90;;;;;;4987222;28;20488;-73
2023/05/18 09:29:19;;;;;;;7.88;1.10;;;12.40;99.90;;;;;;5019043;28;20534;-73
2023/05/18 09:31:46;;;;;;;2.80;0.82;;;12.50;99.90;;;;;;5010098;28;20439;-73
2023/05/18 09:34:12;;;;;;;1.92;1.38;;;12.50;99.90;;;;;;5003566;28;20069;-74
2023/05/18 09:36:38;;;;;;;1.30;1.08;;;12.50;99.90;;;;;;5022814;28;20041;-72
2023/05/18 09:39:08;;;;;;;5.18;1.15;;;12.60;99.90;;;;;;5008967;28;20045;-73
2023/05/18 09:41:37;;;;;;;2.50;1.23;;;12.60;99.90;;;;;;5018548;28;20133;-73
2023/05/18 09:44:07;;;;;;;4.07;1.40;;;12.60;99.90;;;;;;5023416;28;20037;-72
2023/05/18 09:46:36;;;;;;;1.90;1.00;;;12.70;99.90;;;;;;5023106;28;20124;-72
2023/05/18 09:49:03;;;;;;;1.40;1.08;;;12.70;99.90;;;;;;5021315;28;20045;-73
2023/05/18 09:51:30;;;;;;;2.83;0.80;;;12.70;99.90;;;;;;5011376;28;20049;-73
2023/05/18 09:53:58;;;;;;;4.57;1.02;;;12.70;99.90;;;;;;5018296;28;20037;-75
2023/05/18 09:56:25;;;;;;;4.05;1.50;;;12.80;99.90;;;;;;5017793;28;20060;-71
2023/05/18 09:58:52;;;;;;;1.80;1.15;;;12.80;99.90;;;;;;5020066;28;20049;-73
2023/05/18 10:01:18;;;;;;;2.22;1.30;;;12.90;99.90;;;;;;5007315;28;20429;-73
2023/05/18 10:03:48;;;;;;;5.28;1.65;;;12.90;99.90;;;;;;5018781;28;20396;-72
2023/05/18 10:06:16;;;;;;;2.22;1.00;;;12.90;99.90;;;;;;5013759;28;20434;-72
2023/05/18 10:08:43;;;;;;;1.55;1.15;;;13.00;99.90;;;;;;5020914;28;20084;-72
2023/05/18 10:11:10;;;;;;;3.13;1.10;;;13.10;99.90;;;;;;5019374;28;20052;-73
2023/05/18 10:13:36;;;;;;;2.97;1.40;;;13.20;99.90;;;;;;5020559;28;20175;-73
2023/05/18 10:16:04;;;;;;;4.13;1.90;;;13.20;99.90;;;;;;5020682;28;20077;-72
2023/05/18 10:18:33;;;;;;;3.38;1.42;;;13.20;99.90;;;;;;5020165;28;20051;-75
2023/05/18 10:21:00;;;;;;;3.42;1.13;;;13.30;99.90;;;;;;5021177;28;20353;-74
2023/05/18 10:23:30;;;;;;;4.95;1.50;;;13.40;99.90;;;;;;5011076;28;20057;-76
2023/05/18 10:25:57;;;;;;;5.85;1.38;;;13.40;99.90;;;;;;5020935;28;20045;-75
2023/05/18 10:28:41;;;;;;;1.55;0.95;;;13.50;99.90;;;;;;5020930;28;20073;-75
2023/05/18 10:31:07;;;;;;;3.92;1.23;;;13.50;99.90;;;;;;5005029;28;20041;-78
2023/05/18 10:33:35;;;;;;;4.47;1.38;;;13.60;99.90;;;;;;5008811;28;20834;-74
2023/05/18 10:36:03;;;;;;;3.63;1.42;;;13.60;99.90;;;;;;5025730;28;20511;-76
2023/05/18 10:38:30;;;;;;;3.72;1.25;;;13.70;99.90;;;;;;5025141;28;20221;-77
2023/05/18 10:40:59;;;;;;;2.45;1.13;;;13.70;99.90;;;;;;5024390;28;20037;-79
2023/05/18 10:43:26;;;;;;;2.30;1.67;;;13.70;99.90;;;;;;5023367;28;20048;-75
2023/05/18 10:45:57;;;;;;;1.45;1.08;;;13.80;99.90;;;;;;5023305;28;20045;-74
2023/05/18 10:48:23;;;;;;;2.83;1.25;;;13.70;99.90;;;;;;5023125;28;20111;-75
2023/05/18 10:50:50;;;;;;;4.70;1.60;;;13.80;99.90;;;;;;5022994;28;20030;-76
2023/05/18 10:53:18;;;;;;;5.43;1.90;;;13.80;99.90;;;;;;5024719;28;20514;-76
2023/05/18 10:55:44;;;;;;;4.13;1.38;;;13.80;99.90;;;;;;5023201;28;20404;-75
2023/05/18 10:58:14;;;;;;;2.50;1.50;;;13.90;99.90;;;;;;5023002;28;20095;-76
2023/05/18 11:00:42;;;;;;;2.15;1.05;;;13.90;99.90;;;;;;5006941;28;20395;-76
2023/05/18 11:03:13;;;;;;;6.05;1.60;;;14.00;99.90;;;;;;5023760;28;20052;-76
2023/05/18 11:05:40;;;;;;;3.67;1.00;;;14.00;99.90;;;;;;4993962;28;20605;-76
2023/05/18 11:08:06;;;;;;;3.20;1.42;;;14.10;99.90;;;;;;5004699;28;20140;-76
2023/05/18 11:10:41;;;;;;;2.28;1.13;;;14.10;99.90;;;;;;5023249;28;20037;-74
2023/05/18 11:13:07;;;;;;;1.17;1.05;;;14.20;99.90;;;;;;5023246;28;20041;-75
2023/05/18 11:15:58;;;;;;;8.93;1.25;;;14.30;99.90;;;;;;5022997;28;20049;-75
2023/05/18 11:18:48;;;;;;;5.30;1.52;;;14.30;99.90;;;;;;5021530;28;20131;-74
2023/05/18 11:21:20;;;;;;;3.35;1.60;;;14.40;99.90;;;;;;5023758;28;20537;-74
2023/05/18 11:24:06;;;;;;;3.28;0.93;;;14.40;99.90;;;;;;5021314;28;20088;-76
2023/05/18 11:26:36;;;;;;;5.65;1.70;;;14.40;99.90;;;;;;5007287;28;20069;-74
2023/05/18 11:29:16;;;;;;;1.83;1.15;;;14.50;99.90;;;;;;5023183;28;20041;-74
2023/05/18 11:31:53;;;;;;;1.98;1.25;;;14.50;99.90;;;;;;5021936;28;20037;-74
2023/05/18 11:34:43;;;;;;;1.92;1.20;;;14.60;99.90;;;;;;5021171;28;20415;-74
2023/05/18 11:37:13;;;;;;;5.25;2.05;;;14.70;99.90;;;;;;5014751;28;20504;-73
2023/05/18 11:39:39;;;;;;;5.45;1.30;;;14.70;99.90;;;;;;5021559;28;20030;-74
2023/05/18 11:42:06;;;;;;;5.45;2.28;;;14.70;99.90;;;;;;5011990;28;20042;-74
2023/05/18 11:44:32;;;;;;;3.05;1.45;;;14.80;99.90;;;;;;5016561;28;20044;-74
2023/05/18 11:46:59;;;;;;;3.15;1.65;;;14.80;99.90;;;;;;5022449;28;20033;-75
2023/05/18 11:49:26;;;;;;;1.65;1.13;;;14.80;99.90;;;;;;5025469;28;20046;-74
2023/05/18 11:51:55;;;;;;;2.88;1.40;;;14.80;99.90;;;;;;5020264;28;20420;-74
2023/05/18 11:54:25;;;;;;;7.00;1.08;;;14.80;99.90;;;;;;5013407;28;20045;-74
2023/05/18 11:56:54;;;;;;;2.28;1.35;;;14.80;99.90;;;;;;5020721;28;20041;-73
2023/05/18 11:59:31;;;;;;;4.90;1.20;;;14.80;99.90;;;;;;5023865;28;20116;-76
2023/05/18 12:02:00;;;;;;;3.17;1.05;;;14.80;99.90;;;;;;4992297;28;20459;-76
2023/05/18 12:04:27;;;;;;;15.25;2.28;;;14.80;99.90;;;;;;5010951;28;20947;-76
2023/05/18 12:06:55;;;;;;;1.17;0.85;;;14.90;99.90;;;;;;5014740;28;20048;-75
2023/05/18 12:09:20;;;;;;;3.55;1.60;;;14.90;99.90;;;;;;5005287;28;20045;-75
2023/05/18 12:11:46;;;;;;;4.40;1.48;;;14.80;99.90;;;;;;5022265;28;20044;-75
2023/05/18 12:14:12;;;;;;;4.80;1.40;;;14.90;99.90;;;;;;5020544;28;20069;-74
2023/05/18 12:16:42;;;;;;;2.92;1.20;;;14.80;99.90;;;;;;5021055;28;20062;-76
2023/05/18 12:19:08;;;;;;;3.00;1.30;;;14.80;99.90;;;;;;5016852;28;20136;-75
2023/05/18 12:21:36;;;;;;;2.42;1.38;;;14.90;99.90;;;;;;5023604;28;20128;-73
2023/05/18 12:24:03;;;;;;;2.70;1.50;;;15.00;99.90;;;;;;5022390;28;20080;-75
2023/05/18 12:26:30;;;;;;;1.20;1.10;;;15.10;99.90;;;;;;5022807;28;20518;-76
2023/05/18 12:28:58;;;;;;;2.85;1.63;;;15.10;99.90;;;;;;5023404;28;20046;-76
2023/05/18 12:31:25;;;;;;;2.88;1.17;;;15.20;99.90;;;;;;4986420;28;20074;-75
2023/05/18 12:33:53;;;;;;;2.25;1.02;;;15.10;99.90;;;;;;5012371;28;20045;-75
2023/05/18 12:36:18;;;;;;;3.22;1.17;;;15.10;99.90;;;;;;5023442;28;20574;-74
2023/05/18 12:38:50;;;;;;;1.48;1.08;;;15.10;99.90;;;;;;5022423;28;20121;-75
2023/05/18 12:41:26;;;;;;;3.13;1.42;;;15.10;99.90;;;;;;5022250;28;20099;-75
2023/05/18 12:43:53;;;;;;;4.43;1.20;;;15.00;99.90;;;;;;5024091;28;20037;-74
2023/05/18 12:46:23;;;;;;;6.03;1.42;;;15.00;99.90;;;;;;5009753;28;20075;-76
2023/05/18 12:48:57;;;;;;;1.77;0.88;;;15.00;99.90;;;;;;5022801;28;20095;-76
2023/05/18 12:51:24;;;;;;;2.97;1.35;;;14.90;99.90;;;;;;5020384;28;20535;-74
2023/05/18 12:53:50;;;;;;;4.68;1.23;;;14.90;99.90;;;;;;5007052;28;20037;-76